Time;durP1;ratioP1;P1;durP2;ratioP2;P2;SDS_P1;SDS_P2;PMS_P1;PMS_P2;Temp;Humidity;BMP_temperature;BMP_pressure;BME280_temperature;BME280_humidity;BME280_pressure;Samples;Min_cycle;Max_cycle;Signal;HPM_P1;HPM_P2
2021/06/09 00:00:24;;;;;;;5.20;4.70;;;;;;;23.87;53.64;99272.70;1745071;82;21898;-65
2021/06/09 00:02:50;;;;;;;6.95;5.22;;;;;;;23.84;53.63;99272.70;1717966;82;21080;-64
2021/06/09 00:05:17;;;;;;;5.05;4.55;;;;;;;23.82;53.66;99269.45;1715196;82;21101;-65
2021/06/09 00:07:43;;;;;;;5.92;5.42;;;;;;;23.80;53.67;99269.42;1699343;82;21037;-64
2021/06/09 00:10:11;;;;;;;5.62;5.12;;;;;;;23.75;53.68;99258.00;1703966;82;21073;-64
2021/06/09 00:12:37;;;;;;;5.92;4.97;;;;;;;23.74;53.70;99263.97;1685006;82;22050;-65
2021/06/09 00:15:11;;;;;;;5.30;4.62;;;;;;;23.72;53.69;99264.78;1701426;82;21684;-65
2021/06/09 00:17:38;;;;;;;5.12;4.72;;;;;;;23.70;53.70;99262.04;1695317;82;21556;-64
2021/06/09 00:20:09;;;;;;;5.05;4.55;;;;;;;23.67;53.72;99258.52;1701532;82;21088;-63
2021/06/09 00:22:35;;;;;;;5.37;4.87;;;;;;;23.64;53.73;99258.52;1688838;83;21065;-63
2021/06/09 00:25:09;;;;;;;5.35;4.58;;;;;;;23.63;53.75;99266.37;1711377;82;21153;-64
2021/06/09 00:27:33;;;;;;;7.05;4.92;;;;;;;23.60;53.74;99257.40;1698577;83;21562;-63
2021/06/09 00:29:59;;;;;;;4.90;4.40;;;;;;;23.59;53.71;99264.47;1678394;83;21565;-63
2021/06/09 00:32:26;;;;;;;5.30;4.45;;;;;;;23.57;53.71;99257.95;1690352;84;21031;-64
2021/06/09 00:34:52;;;;;;;4.97;4.50;;;;;;;23.56;53.65;99261.72;1699452;83;21074;-64
2021/06/09 00:37:19;;;;;;;6.10;4.37;;;;;;;23.54;53.65;99260.63;1711242;83;21156;-65
2021/06/09 00:39:45;;;;;;;5.12;4.47;;;;;;;23.51;53.61;99254.95;1689563;83;21141;-64
2021/06/09 00:42:12;;;;;;;5.42;4.92;;;;;;;23.48;53.58;99252.20;1703802;82;21037;-64
2021/06/09 00:44:38;;;;;;;5.45;4.70;;;;;;;23.48;53.58;99247.33;1700451;82;21037;-63
2021/06/09 00:47:04;;;;;;;6.42;4.55;;;;;;;23.45;53.58;99241.91;1699776;83;21810;-63
2021/06/09 00:49:31;;;;;;;6.85;5.17;;;;;;;23.43;53.57;99245.42;1699085;83;21801;-65
2021/06/09 00:51:58;;;;;;;5.08;4.67;;;;;;;23.41;53.57;99242.17;1698753;84;21049;-63
2021/06/09 00:54:25;;;;;;;4.92;4.42;;;;;;;23.40;53.58;99246.49;1661768;84;21034;-65
2021/06/09 00:56:51;;;;;;;4.72;4.22;;;;;;;23.38;53.62;99240.52;1687015;84;21935;-63
2021/06/09 00:59:17;;;;;;;4.62;4.22;;;;;;;;;;1699912;83;21534;-64
2021/06/09 01:01:44;;;;;;;4.78;4.30;;;;;;;23.35;53.56;99240.49;1690941;83;21871;-63
2021/06/09 01:04:10;;;;;;;4.75;4.35;;;;;;;23.33;53.59;99236.72;1689540;83;21079;-63
2021/06/09 01:06:37;;;;;;;4.95;4.47;;;;;;;23.33;53.61;99229.10;1689526;83;21057;-64
2021/06/09 01:09:07;;;;;;;4.92;4.42;;;;;;;23.30;53.57;99231.81;1686383;83;21573;-63
2021/06/09 01:11:32;;;;;;;5.12;4.70;;;;;;;23.30;53.56;99237.78;1688740;84;21751;-63
2021/06/09 01:14:00;;;;;;;5.65;4.60;;;;;;;23.26;53.55;99233.42;1686536;83;21142;-63
2021/06/09 01:16:26;;;;;;;6.03;4.40;;;;;;;23.25;53.59;99236.39;1679783;83;21992;-63
2021/06/09 01:18:54;;;;;;;6.50;3.95;;;;;;;23.23;53.58;99237.20;1682594;83;21649;-64
2021/06/09 01:21:29;;;;;;;4.90;4.45;;;;;;;23.22;53.55;99238.26;1688998;84;21088;-64
2021/06/09 01:23:56;;;;;;;5.05;4.55;;;;;;;23.20;53.56;99233.13;1698203;82;21022;-63
2021/06/09 01:26:25;;;;;;;4.85;4.35;;;;;;;23.18;53.58;99235.80;1707236;82;21827;-63
2021/06/09 01:28:54;;;;;;;5.28;4.75;;;;;;;23.16;53.59;99246.93;1708040;82;21377;-62
2021/06/09 01:31:23;;;;;;;4.55;4.15;;;;;;;23.13;53.61;99249.61;1721577;82;21065;-63
2021/06/09 01:33:50;;;;;;;6.95;4.62;;;;;;;23.12;53.62;99255.28;1714352;82;20994;-63
2021/06/09 01:36:21;;;;;;;5.08;4.58;;;;;;;23.10;53.63;99250.15;1719199;82;21078;-64
2021/06/09 01:38:51;;;;;;;4.62;4.17;;;;;;;23.09;53.64;99249.05;1725045;82;21148;-64
2021/06/09 01:41:24;;;;;;;4.50;4.05;;;;;;;23.06;53.69;99249.02;1732434;80;21011;-63
2021/06/09 01:43:53;;;;;;;4.25;3.90;;;;;;;23.04;53.69;99253.08;1742434;82;25940;-63
2021/06/09 01:46:20;;;;;;;4.95;3.90;;;;;;;23.03;53.69;99252.81;1740700;80;21541;-63
2021/06/09 01:48:47;;;;;;;4.45;4.05;;;;;;;23.00;53.74;99254.10;1749785;80;21042;-64
2021/06/09 01:51:13;;;;;;;5.62;5.12;;;;;;;23.00;53.74;99262.23;1754069;81;21862;-63
2021/06/09 01:53:40;;;;;;;7.80;5.05;;;;;;;23.00;53.71;99266.84;1756278;80;21028;-63
2021/06/09 01:56:06;;;;;;;6.17;4.33;;;;;;;22.96;53.71;99259.22;1754331;81;21057;-63
2021/06/09 01:58:33;;;;;;;6.50;4.85;;;;;;;22.95;53.71;99263.02;1750380;80;21518;-63
2021/06/09 02:00:59;;;;;;;5.60;5.10;;;;;;;22.94;53.71;99259.22;1755344;80;21057;-63
2021/06/09 02:03:25;;;;;;;5.35;4.85;;;;;;;22.93;53.73;99263.02;1758380;80;21119;-62
2021/06/09 02:05:52;;;;;;;11.08;5.12;;;;;;;22.91;53.75;99263.27;1761822;80;21109;-62
2021/06/09 02:08:19;;;;;;;5.87;4.70;;;;;;;22.89;53.78;99266.78;1772376;80;21488;-63
2021/06/09 02:10:45;;;;;;;6.17;4.72;;;;;;;22.88;53.81;99269.20;1757961;80;21096;-63
2021/06/09 02:13:15;;;;;;;5.15;4.65;;;;;;;22.87;53.84;99270.29;1743682;80;20994;-63
2021/06/09 02:15:43;;;;;;;5.17;4.70;;;;;;;22.86;53.89;99268.64;1749692;80;21189;-63
2021/06/09 02:18:16;;;;;;;5.00;4.60;;;;;;;22.83;53.96;99265.12;1752836;80;21081;-64
2021/06/09 02:20:44;;;;;;;4.78;4.37;;;;;;;22.83;53.97;99271.89;1777376;80;21093;-64
2021/06/09 02:23:14;;;;;;;5.75;4.40;;;;;;;22.81;54.02;99269.95;1746440;80;21349;-63
2021/06/09 02:25:43;;;;;;;5.65;4.40;;;;;;;22.66;54.10;99251.72;1787221;80;21089;-64
2021/06/09 02:28:09;;;;;;;4.55;4.15;;;;;;;22.80;54.15;99270.23;1765234;80;21098;-66
2021/06/09 02:30:36;;;;;;;6.72;4.65;;;;;;;22.80;54.20;99262.11;1772238;79;20991;-63
2021/06/09 02:33:04;;;;;;;6.03;4.65;;;;;;;22.80;54.24;99263.47;1774587;80;21030;-64
2021/06/09 02:35:34;;;;;;;4.45;4.05;;;;;;;22.78;54.27;99261.82;1754555;81;21026;-64
2021/06/09 02:38:01;;;;;;;4.35;3.95;;;;;;;22.78;54.28;99257.77;1736344;80;21596;-63
2021/06/09 02:40:28;;;;;;;4.87;4.33;;;;;;;22.78;54.33;99256.41;1773262;80;21335;-63
2021/06/09 02:42:54;;;;;;;5.00;4.50;;;;;;;22.78;54.35;99254.25;1740344;81;21028;-63
2021/06/09 02:45:20;;;;;;;4.80;4.30;;;;;;;22.80;54.34;99258.05;1750389;80;21510;-63
2021/06/09 02:47:50;;;;;;;4.47;4.17;;;;;;;22.79;54.40;99258.56;1739476;81;21014;-63
2021/06/09 02:50:18;;;;;;;4.62;4.22;;;;;;;22.79;54.44;99254.50;1715301;81;21021;-65
2021/06/09 02:53:02;;;;;;;5.70;4.62;;;;;;;22.80;54.47;99257.50;1727288;81;21059;-64
2021/06/09 02:55:49;;;;;;;;;;;;;;;22.79;54.47;99254.50;1739041;82;21034;-64
2021/06/09 02:58:50;;;;;;;5.40;3.72;;;;;;;22.78;54.54;99255.05;1720240;81;20242;-62
2021/06/09 03:01:42;;;;;;;5.05;4.00;;;;;;;22.69;54.77;99261.21;1737690;80;21514;-63
2021/06/09 03:04:29;;;;;;;6.28;4.47;;;;;;;22.69;54.85;99262.02;1702226;82;21164;-64
2021/06/09 03:07:07;;;;;;;4.47;4.17;;;;;;;22.69;54.90;99266.08;1716802;81;21142;-63
2021/06/09 03:09:42;;;;;;;5.03;4.33;;;;;;;22.68;54.98;99271.23;1710387;82;21051;-64
2021/06/09 03:12:29;;;;;;;5.40;4.70;;;;;;;22.68;55.04;99267.17;1743128;81;21085;-63
2021/06/09 03:15:13;;;;;;;5.50;4.35;;;;;;;22.69;55.14;99272.04;1690377;82;21049;-64
2021/06/09 03:18:04;;;;;;;4.90;4.40;;;;;;;22.69;55.23;99265.27;1707690;82;21077;-64
2021/06/09 03:20:56;;;;;;;4.42;4.03;;;;;;;22.69;55.32;99267.98;1677463;82;21117;-64
2021/06/09 03:23:41;;;;;;;4.47;3.98;;;;;;;22.69;55.48;99273.39;1740407;82;21490;-63
2021/06/09 03:26:40;;;;;;;5.45;4.70;;;;;;;22.69;55.55;99276.91;1732288;82;21066;-64
2021/06/09 03:29:17;;;;;;;4.90;4.50;;;;;;;22.70;55.66;99269.63;1743346;82;21034;-63
2021/06/09 03:31:53;;;;;;;4.67;4.28;;;;;;;22.70;55.75;99273.14;1690529;82;21046;-64
2021/06/09 03:34:30;;;;;;;5.58;5.08;;;;;;;22.73;55.83;99278.02;1673465;82;21799;-63
2021/06/09 03:36:58;;;;;;;5.03;4.53;;;;;;;22.75;55.92;99273.19;1660110;82;21545;-63
2021/06/09 03:39:25;;;;;;;5.72;5.12;;;;;;;22.77;56.02;99276.45;1680281;82;21026;-65
2021/06/09 03:41:54;;;;;;;4.83;4.33;;;;;;;22.81;56.02;99275.37;1707527;82;21049;-64
2021/06/09 03:44:32;;;;;;;7.03;5.17;;;;;;;22.84;56.07;99271.34;1707644;82;21073;-64
2021/06/09 03:46:59;;;;;;;5.15;4.75;;;;;;;22.87;56.09;99270.29;1715173;82;21152;-62
2021/06/09 03:49:26;;;;;;;5.58;5.08;;;;;;;22.90;56.18;99279.23;1711943;81;21112;-62
2021/06/09 03:51:53;;;;;;;5.20;4.70;;;;;;;22.93;56.19;99279.27;1705132;82;21072;-63
2021/06/09 03:54:19;;;;;;;7.17;5.28;;;;;;;22.97;56.23;99277.66;1729127;82;21589;-63
2021/06/09 03:56:47;;;;;;;6.30;5.28;;;;;;;23.01;56.27;99276.61;1726911;82;21026;-63
2021/06/09 03:59:14;;;;;;;6.05;5.30;;;;;;;23.06;56.43;99282.07;1732854;80;21144;-63
2021/06/09 04:01:41;;;;;;;5.58;4.95;;;;;;;23.11;56.52;99283.47;1726695;82;21038;-62
2021/06/09 04:04:09;;;;;;;7.40;5.12;;;;;;;23.15;56.55;99287.28;1743340;81;21058;-64
2021/06/09 04:06:39;;;;;;;4.83;4.53;;;;;;;23.19;56.60;99286.22;1743544;82;21034;-64
2021/06/09 04:09:06;;;;;;;5.60;4.90;;;;;;;23.21;56.65;99279.45;1737846;81;21564;-64
2021/06/09 04:11:33;;;;;;;6.47;5.03;;;;;;;23.25;56.73;99283.27;1703563;81;21204;-61
2021/06/09 04:14:00;;;;;;;5.70;5.17;;;;;;;23.30;56.72;99285.20;1737362;81;21045;-61
2021/06/09 04:16:29;;;;;;;5.70;5.20;;;;;;;23.33;56.73;99286.85;1724325;82;21070;-63
2021/06/09 04:18:55;;;;;;;6.03;5.40;;;;;;;23.39;56.78;99286.86;1715888;82;21065;-63
2021/06/09 04:21:26;;;;;;;6.15;5.17;;;;;;;23.43;56.81;99294.22;1714788;82;21000;-64
2021/06/09 04:23:53;;;;;;;7.35;5.37;;;;;;;23.49;56.77;99297.77;1741981;82;21235;-64
2021/06/09 04:26:20;;;;;;;5.25;4.85;;;;;;;23.54;56.78;99299.94;1738105;80;21494;-64
2021/06/09 04:28:47;;;;;;;5.42;4.92;;;;;;;23.59;56.69;99300.52;1731258;80;21719;-63
2021/06/09 04:31:15;;;;;;;5.97;5.47;;;;;;;23.64;56.70;99296.48;1736864;80;21023;-62
2021/06/09 04:33:45;;;;;;;5.92;5.22;;;;;;;23.69;56.68;99295.67;1740164;80;20999;-63
2021/06/09 04:36:12;;;;;;;6.37;5.80;;;;;;;23.74;56.66;99295.16;1738486;80;21836;-64
2021/06/09 04:38:38;;;;;;;6.83;6.10;;;;;;;23.83;56.65;99300.09;1739719;82;21043;-63
2021/06/09 04:41:05;;;;;;;5.40;5.00;;;;;;;23.90;56.49;99296.59;1722909;81;21529;-62
2021/06/09 04:43:32;;;;;;;6.55;5.67;;;;;;;23.97;56.39;99289.55;1703052;82;21034;-63
2021/06/09 04:45:59;;;;;;;6.92;5.58;;;;;;;24.01;56.42;99291.48;1720097;80;21172;-64
2021/06/09 04:48:25;;;;;;;5.92;5.42;;;;;;;24.08;56.31;99300.16;1732554;80;21117;-65
2021/06/09 04:50:52;;;;;;;7.67;5.60;;;;;;;24.14;56.31;99284.70;1729686;80;21527;-63
2021/06/09 04:53:20;;;;;;;5.95;5.00;;;;;;;24.22;56.17;99287.43;1732681;80;21085;-63
2021/06/09 04:55:52;;;;;;;5.67;5.17;;;;;;;24.27;55.96;99288.25;1733686;81;21086;-64
2021/06/09 04:58:22;;;;;;;6.55;4.97;;;;;;;24.33;55.78;99290.44;1702298;82;21038;-64
2021/06/09 05:03:41;;;;;;;5.20;4.70;;;;;;;24.46;55.70;99293.98;1860008;75;22392;-63
2021/06/09 05:06:08;;;;;;;6.22;5.30;;;;;;;24.44;55.65;99296.15;1842816;77;21012;-63
2021/06/09 05:08:34;;;;;;;6.72;5.03;;;;;;;24.50;55.52;99292.89;1836477;77;21818;-64
2021/06/09 05:11:01;;;;;;;5.45;4.95;;;;;;;24.55;55.50;99288.03;1842689;77;20977;-63
2021/06/09 05:13:33;;;;;;;5.12;4.62;;;;;;;24.59;55.38;99289.95;1846667;77;21005;-63
2021/06/09 05:16:07;;;;;;;5.95;5.35;;;;;;;24.63;55.29;99297.02;1840279;77;20929;-63
2021/06/09 05:18:42;;;;;;;5.90;4.92;;;;;;;24.66;55.32;99296.45;1777183;79;21008;-65
2021/06/09 05:21:09;;;;;;;6.12;4.58;;;;;;;24.69;55.22;99300.00;1801534;78;21776;-64
2021/06/09 05:23:42;;;;;;;5.20;4.78;;;;;;;24.73;55.11;99303.80;1781990;78;21588;-65
2021/06/09 05:26:10;;;;;;;5.72;5.20;;;;;;;24.75;55.11;99302.97;1809926;78;20997;-64
2021/06/09 05:28:48;;;;;;;6.53;5.80;;;;;;;24.80;55.00;99303.50;1782028;78;21060;-63
2021/06/09 05:31:17;;;;;;;6.08;5.47;;;;;;;24.82;54.95;99303.52;1799785;78;21084;-64
2021/06/09 05:33:43;;;;;;;5.10;4.65;;;;;;;24.85;54.88;99306.23;1779322;78;21327;-62
2021/06/09 05:36:10;;;;;;;6.20;4.97;;;;;;;24.88;54.81;99310.58;1779713;79;21041;-63
2021/06/09 05:38:37;;;;;;;5.62;4.97;;;;;;;24.91;54.78;99305.94;1785071;79;21088;-64
2021/06/09 05:41:03;;;;;;;5.47;5.00;;;;;;;24.95;54.82;99305.41;1778728;79;21101;-64
2021/06/09 05:43:31;;;;;;;5.65;5.15;;;;;;;24.99;54.71;99307.84;1785329;79;21072;-64
2021/06/09 05:46:01;;;;;;;5.78;5.28;;;;;;;25.02;54.67;99303.23;1783957;79;21141;-64
2021/06/09 05:48:27;;;;;;;5.72;5.20;;;;;;;25.05;54.56;99304.86;1774140;79;21521;-64
2021/06/09 05:50:57;;;;;;;7.95;4.80;;;;;;;25.08;54.54;99306.20;1785027;79;21083;-63
2021/06/09 05:53:27;;;;;;;6.95;5.00;;;;;;;25.11;54.52;99301.55;1781738;79;21084;-64
2021/06/09 05:55:54;;;;;;;5.72;4.65;;;;;;;25.14;54.48;99296.94;1778211;79;21045;-64
2021/06/09 05:58:22;;;;;;;5.97;5.37;;;;;;;25.16;54.42;99292.05;1787611;79;21100;-65
2021/06/09 06:00:52;;;;;;;6.55;5.25;;;;;;;25.20;54.36;99297.75;1783489;79;21104;-64
2021/06/09 06:03:20;;;;;;;5.55;5.05;;;;;;;25.23;54.29;99299.41;1772607;79;21088;-63
2021/06/09 06:05:47;;;;;;;5.22;4.75;;;;;;;25.26;54.12;99299.39;1755031;80;21123;-64
2021/06/09 06:08:14;;;;;;;6.00;5.17;;;;;;;25.29;54.06;99298.84;1765566;80;21068;-65
2021/06/09 06:10:40;;;;;;;5.08;4.60;;;;;;;25.31;54.06;99296.66;1763302;80;21812;-63
2021/06/09 06:13:07;;;;;;;7.00;5.00;;;;;;;25.34;54.03;99298.81;1768646;80;21055;-65
2021/06/09 06:15:33;;;;;;;6.45;4.55;;;;;;;25.38;53.95;99295.00;1769009;80;21612;-63
2021/06/09 06:18:00;;;;;;;4.65;4.28;;;;;;;25.41;53.80;99297.18;1766198;80;21037;-63
2021/06/09 06:20:26;;;;;;;4.92;4.47;;;;;;;25.43;53.73;99294.44;1767030;80;21033;-63
2021/06/09 06:22:53;;;;;;;4.65;4.25;;;;;;;25.46;53.74;99299.89;1766644;80;21152;-64
2021/06/09 06:25:23;;;;;;;5.08;4.67;;;;;;;25.50;53.58;99305.05;1763422;80;21044;-64
2021/06/09 06:27:53;;;;;;;6.05;4.20;;;;;;;25.51;53.67;99303.38;1768372;80;21512;-63
2021/06/09 06:30:22;;;;;;;4.33;3.92;;;;;;;25.53;53.52;99302.30;1763945;80;21009;-66
2021/06/09 06:32:54;;;;;;;5.00;4.45;;;;;;;25.52;53.24;99306.94;1766215;80;21071;-65
2021/06/09 06:35:23;;;;;;;6.47;4.37;;;;;;;25.54;53.19;99304.75;1769999;80;21104;-65
2021/06/09 06:37:50;;;;;;;5.08;4.45;;;;;;;25.55;53.30;99296.04;1761595;79;21076;-65
2021/06/09 06:40:26;;;;;;;5.08;4.62;;;;;;;25.57;53.10;99297.93;1769276;80;21099;-67
2021/06/09 06:42:52;;;;;;;8.58;6.87;;;;;;;25.59;53.02;99303.35;1761411;79;21116;-67
2021/06/09 06:45:20;;;;;;;9.73;7.05;;;;;;;25.60;53.02;99298.75;1771900;79;21040;-65
2021/06/09 06:47:47;;;;;;;9.13;6.67;;;;;;;25.61;53.16;99305.28;1764580;81;21105;-66
2021/06/09 06:50:14;;;;;;;6.90;6.20;;;;;;;25.62;53.02;99289.77;1752221;81;21045;-64
2021/06/09 06:52:42;;;;;;;7.83;5.50;;;;;;;25.64;52.98;99297.09;1765197;80;21080;-68
2021/06/09 06:55:10;;;;;;;7.50;5.72;;;;;;;25.66;52.81;99300.34;1771976;80;21115;-65
2021/06/09 06:57:37;;;;;;;7.83;5.00;;;;;;;25.69;52.74;99297.05;1790926;80;21041;-67
2021/06/09 07:00:22;;;;;;;6.35;5.00;;;;;;;25.70;52.83;99302.22;1775215;80;21012;-69
2021/06/09 07:02:54;;;;;;;5.05;4.55;;;;;;;25.73;52.23;99297.31;1780052;80;21092;-67
2021/06/09 07:05:22;;;;;;;6.55;4.85;;;;;;;25.73;52.41;99291.35;1771936;80;21080;-68
2021/06/09 07:07:50;;;;;;;5.22;4.25;;;;;;;25.77;52.46;99301.09;1773222;78;21155;-64
2021/06/09 07:10:17;;;;;;;4.28;3.83;;;;;;;25.80;52.35;99296.47;1778982;80;21033;-67
2021/06/09 07:12:45;;;;;;;4.00;3.60;;;;;;;25.82;51.83;99294.28;1765124;79;22348;-64
2021/06/09 07:15:14;;;;;;;4.10;3.75;;;;;;;25.84;51.69;99298.90;1799991;78;21030;-65
2021/06/09 07:17:44;;;;;;;4.78;3.45;;;;;;;25.85;51.75;99300.54;1775207;80;21072;-66
2021/06/09 07:20:12;;;;;;;4.10;3.67;;;;;;;25.88;51.33;99297.24;1777701;80;21052;-65
2021/06/09 07:22:39;;;;;;;4.60;3.95;;;;;;;25.90;51.23;99296.41;1786200;78;20974;-66
2021/06/09 07:25:07;;;;;;;5.95;3.72;;;;;;;25.92;51.17;99296.98;1776640;79;21106;-66
2021/06/09 07:27:35;;;;;;;7.90;3.80;;;;;;;25.96;50.99;99298.06;1766198;80;21550;-66
2021/06/09 07:30:07;;;;;;;6.17;3.80;;;;;;;25.98;50.81;99294.52;1791692;78;21137;-64
2021/06/09 07:32:37;;;;;;;3.85;3.55;;;;;;;26.01;50.54;99295.85;1774892;80;21049;-66
2021/06/09 07:35:05;;;;;;;3.90;3.55;;;;;;;26.04;50.41;99302.91;1800274;78;21064;-69
2021/06/09 07:37:34;;;;;;;3.90;3.60;;;;;;;26.06;50.30;99299.91;1787960;80;21095;-64
2021/06/09 07:40:02;;;;;;;5.10;3.60;;;;;;;26.09;50.17;99300.70;1771861;78;21486;-65
2021/06/09 07:42:30;;;;;;;5.95;3.72;;;;;;;26.12;49.87;99299.34;1764004;80;21057;-66
2021/06/09 07:45:06;;;;;;;4.87;3.50;;;;;;;26.13;49.56;99303.11;1797137;78;21527;-65
2021/06/09 07:47:34;;;;;;;5.20;3.40;;;;;;;26.15;49.32;99294.67;1791509;78;21549;-67
2021/06/09 07:50:04;;;;;;;5.03;3.50;;;;;;;26.15;49.33;99295.48;1800743;78;21137;-66
2021/06/09 07:52:31;;;;;;;4.08;3.10;;;;;;;26.18;49.41;99297.66;1790818;78;20995;-66
2021/06/09 07:54:58;;;;;;;3.55;3.25;;;;;;;26.21;49.16;99298.98;1792924;78;21061;-66
2021/06/09 07:57:26;;;;;;;3.58;3.27;;;;;;;26.24;48.87;99301.96;1787086;80;21056;-67
2021/06/09 07:59:52;;;;;;;3.75;3.42;;;;;;;26.26;48.79;99301.13;1781234;78;21040;-68
2021/06/09 08:02:20;;;;;;;3.77;3.47;;;;;;;26.28;48.42;99306.30;1782214;79;21310;-68
2021/06/09 08:04:47;;;;;;;3.92;3.00;;;;;;;26.29;48.70;99305.22;1790074;78;21456;-68
2021/06/09 08:07:13;;;;;;;3.40;3.10;;;;;;;26.33;48.58;99310.88;1788929;78;21245;-68
2021/06/09 08:09:40;;;;;;;4.47;3.30;;;;;;;26.36;48.48;99306.24;1786580;78;21519;-64
2021/06/09 08:12:07;;;;;;;4.22;2.85;;;;;;;26.39;48.24;99306.50;1795735;78;21015;-65
2021/06/09 08:14:34;;;;;;;3.85;2.87;;;;;;;26.41;48.24;99312.47;1788778;80;21786;-64
2021/06/09 08:17:01;;;;;;;3.45;3.15;;;;;;;26.43;47.87;99307.55;1793477;78;20993;-67
2021/06/09 08:19:28;;;;;;;3.35;3.08;;;;;;;26.44;47.76;99310.55;1794565;78;21009;-67
2021/06/09 08:21:55;;;;;;;3.27;2.75;;;;;;;26.46;47.27;99307.52;1783436;78;21571;-65
2021/06/09 08:24:22;;;;;;;3.20;2.90;;;;;;;26.48;47.06;99308.05;1774877;80;21063;-66
2021/06/09 08:26:49;;;;;;;2.75;2.55;;;;;;;26.48;46.40;99297.99;1770244;79;21951;-67
2021/06/09 08:29:16;;;;;;;2.83;2.62;;;;;;;26.48;46.51;99302.08;1764703;79;21076;-66
2021/06/09 08:31:42;;;;;;;4.03;2.80;;;;;;;26.48;46.36;99312.97;1790697;79;21080;-64
2021/06/09 08:34:09;;;;;;;4.17;2.83;;;;;;;26.51;46.36;99306.69;1796801;79;21017;-65
2021/06/09 08:36:35;;;;;;;3.35;3.10;;;;;;;26.52;46.37;99308.30;1789311;79;21516;-65
2021/06/09 08:39:04;;;;;;;2.75;2.55;;;;;;;26.53;45.91;99301.77;1780521;79;22446;-64
2021/06/09 08:41:36;;;;;;;3.40;3.10;;;;;;;26.55;45.80;99305.83;1795722;79;21580;-64
2021/06/09 08:44:05;;;;;;;3.08;2.87;;;;;;;26.58;45.15;99302.55;1794604;79;22008;-64
2021/06/09 08:46:33;;;;;;;3.95;2.87;;;;;;;26.57;44.99;99302.27;1777921;79;21010;-64
2021/06/09 08:49:01;;;;;;;3.42;3.12;;;;;;;26.57;45.05;99300.91;1775285;79;21048;-66
2021/06/09 08:51:33;;;;;;;4.47;3.30;;;;;;;26.60;45.24;99309.11;1800205;78;21130;-67
2021/06/09 08:54:03;;;;;;;4.53;2.95;;;;;;;26.64;44.67;99308.80;1807911;78;21030;-68
2021/06/09 08:56:29;;;;;;;3.00;2.80;;;;;;;26.66;44.35;99305.23;1780145;80;21612;-68
2021/06/09 08:59:00;;;;;;;4.45;3.20;;;;;;;26.68;44.22;99303.84;1765804;80;21096;-67
2021/06/09 09:01:29;;;;;;;3.40;3.10;;;;;;;26.70;44.51;99306.30;1779829;80;21017;-70
2021/06/09 09:03:55;;;;;;;3.37;3.08;;;;;;;26.73;44.31;99299.45;1776266;79;21888;-69
2021/06/09 09:06:24;;;;;;;3.15;2.85;;;;;;;26.76;43.96;99299.69;1763307;81;20989;-69
2021/06/09 09:08:53;;;;;;;3.60;3.30;;;;;;;26.80;43.58;99297.21;1760406;80;21556;-66
2021/06/09 09:11:22;;;;;;;3.20;2.90;;;;;;;26.84;43.79;99296.34;1764246;81;21068;-68
2021/06/09 09:13:50;;;;;;;4.92;3.22;;;;;;;26.88;43.74;99294.66;1759330;81;21069;-69
2021/06/09 09:16:16;;;;;;;3.15;2.85;;;;;;;26.94;43.01;99285.89;1751264;80;21142;-68
2021/06/09 09:21:43;;;;;;;4.05;3.08;;;;;;;27.08;44.28;99275.12;1748495;81;21100;-68
2021/06/09 09:24:12;;;;;;;2.90;2.70;;;;;;;27.15;45.01;99278.32;1763435;81;21052;-69
2021/06/09 09:26:42;;;;;;;4.28;2.87;;;;;;;27.21;45.61;99269.53;1766963;79;21076;-67
2021/06/09 09:29:21;;;;;;;3.35;2.80;;;;;;;27.26;45.00;99267.60;1763678;81;21110;-70
2021/06/09 09:32:03;;;;;;;3.83;3.20;;;;;;;27.34;45.33;99266.70;1794642;79;21045;-68
2021/06/09 09:34:44;;;;;;;4.92;4.08;;;;;;;27.40;45.42;99260.89;1780549;79;21524;-67
2021/06/09 09:37:16;;;;;;;3.33;3.02;;;;;;;27.44;44.82;99258.39;1754071;80;21643;-68
2021/06/09 09:39:53;;;;;;;3.27;2.98;;;;;;;27.48;43.46;99255.90;1756269;80;21092;-65
2021/06/09 09:42:35;;;;;;;3.77;3.33;;;;;;;27.51;44.47;99253.41;1752391;81;21466;-66
2021/06/09 09:45:28;;;;;;;3.50;3.20;;;;;;;27.54;44.58;99248.70;1763892;81;21607;-68
2021/06/09 09:48:16;;;;;;;3.20;2.83;;;;;;;27.60;45.16;99250.29;1760932;81;21099;-64
2021/06/09 09:50:48;;;;;;;3.47;3.08;;;;;;;27.62;45.54;99248.08;1764190;79;21085;-66
2021/06/09 09:53:22;;;;;;;4.25;3.00;;;;;;;27.67;45.87;99249.11;1764276;80;21076;-70
2021/06/09 09:56:09;;;;;;;4.03;3.50;;;;;;;27.69;45.83;99243.61;1747440;81;21135;-69
2021/06/09 09:58:41;;;;;;;3.83;3.05;;;;;;;27.73;45.95;99243.84;1762014;81;21053;-67
2021/06/09 10:01:20;;;;;;;3.70;3.12;;;;;;;27.77;45.92;99225.20;1741307;81;21572;-67
2021/06/09 10:03:54;;;;;;;4.40;3.47;;;;;;;27.81;45.86;99226.80;1767168;80;21064;-65
2021/06/09 10:06:42;;;;;;;3.65;3.10;;;;;;;27.86;45.71;99226.73;1777341;80;21123;-70
2021/06/09 10:09:17;;;;;;;3.75;3.17;;;;;;;27.90;45.45;99226.99;1769922;80;21120;-68
2021/06/09 10:11:52;;;;;;;3.58;3.08;;;;;;;27.95;45.27;99220.08;1776594;80;21049;-68
2021/06/09 10:14:26;;;;;;;3.90;3.50;;;;;;;27.99;45.12;99221.09;1779758;80;21026;-67
2021/06/09 10:17:10;;;;;;;3.35;3.05;;;;;;;28.03;45.22;99219.42;1776052;80;21057;-65
2021/06/09 10:19:41;;;;;;;4.83;3.25;;;;;;;28.07;45.00;99221.81;1764106;80;21048;-66
2021/06/09 10:22:12;;;;;;;5.67;3.08;;;;;;;28.08;44.84;99219.33;1766626;79;21139;-65
2021/06/09 10:24:57;;;;;;;4.72;3.40;;;;;;;28.10;44.80;99210.28;1791531;78;21025;-67
2021/06/09 10:27:49;;;;;;;3.45;3.12;;;;;;;28.10;43.93;99214.38;1790532;79;21001;-67
2021/06/09 10:30:28;;;;;;;4.65;3.47;;;;;;;28.09;43.85;99214.70;1801687;78;21074;-67
2021/06/09 10:32:57;;;;;;;4.67;3.10;;;;;;;28.08;43.73;99222.63;1790267;78;21110;-66
2021/06/09 10:35:27;;;;;;;4.37;3.33;;;;;;;28.08;44.11;99222.63;1771501;80;21112;-65
2021/06/09 10:37:53;;;;;;;4.10;3.22;;;;;;;28.09;44.31;99222.33;1794999;78;21088;-67
2021/06/09 10:40:21;;;;;;;3.42;3.12;;;;;;;28.13;44.38;99219.82;1808882;78;21743;-66
2021/06/09 10:42:49;;;;;;;3.58;3.00;;;;;;;28.17;44.44;99224.94;1797909;78;21534;-65
2021/06/09 10:45:16;;;;;;;4.37;3.47;;;;;;;28.20;44.44;99216.13;1812453;78;21056;-67
2021/06/09 10:47:44;;;;;;;5.20;3.35;;;;;;;28.23;44.45;99210.09;1781600;80;21106;-66
2021/06/09 10:50:11;;;;;;;3.50;3.20;;;;;;;28.24;44.43;99210.36;1789315;80;21510;-66
2021/06/09 10:52:39;;;;;;;3.77;3.45;;;;;;;28.23;44.33;99212.26;1775764;80;21192;-69
2021/06/09 10:55:08;;;;;;;4.50;3.58;;;;;;;28.23;44.33;99212.26;1770724;79;21121;-67
2021/06/09 10:57:35;;;;;;;5.67;3.45;;;;;;;28.21;44.38;99210.95;1761890;80;21017;-66
2021/06/09 11:00:03;;;;;;;4.10;3.30;;;;;;;28.19;44.42;99221.36;1763809;80;21090;-68
2021/06/09 11:02:29;;;;;;;5.67;4.15;;;;;;;28.16;44.37;99230.13;1782285;80;21573;-67
2021/06/09 11:05:00;;;;;;;4.97;4.40;;;;;;;28.12;44.36;99230.47;1757016;80;21045;-69
2021/06/09 11:07:29;;;;;;;5.35;4.30;;;;;;;28.09;44.56;99226.98;1764257;80;21034;-67
2021/06/09 11:10:00;;;;;;;4.83;4.33;;;;;;;28.05;44.62;99229.50;1770670;80;21519;-65
2021/06/09 11:12:32;;;;;;;4.37;3.98;;;;;;;28.01;44.64;99221.64;1755241;80;21188;-68
2021/06/09 11:15:06;;;;;;;5.17;3.83;;;;;;;27.97;44.81;99217.86;1769090;80;21068;-66
2021/06/09 11:17:43;;;;;;;4.65;4.05;;;;;;;27.92;44.77;99214.66;1762833;79;21050;-66
2021/06/09 11:20:20;;;;;;;4.58;3.95;;;;;;;27.88;44.83;99206.81;1785859;80;21578;-67
2021/06/09 11:22:54;;;;;;;5.05;3.95;;;;;;;27.87;44.83;99201.61;1774115;80;21126;-65
2021/06/09 11:25:39;;;;;;;4.03;3.60;;;;;;;27.87;45.09;99202.41;1777993;80;21873;-67
2021/06/09 11:28:34;;;;;;;3.75;3.17;;;;;;;27.89;45.29;99196.70;1808628;79;21076;-66
2021/06/09 11:31:26;;;;;;;4.12;3.83;;;;;;;27.93;45.47;99187.64;1778031;79;21020;-70
2021/06/09 11:33:56;;;;;;;3.17;2.90;;;;;;;27.98;45.53;99188.10;1769411;79;21069;-69
2021/06/09 11:36:32;;;;;;;3.83;3.52;;;;;;;28.07;45.51;99186.33;1788842;79;21064;-68
2021/06/09 11:39:10;;;;;;;3.72;3.42;;;;;;;28.12;45.38;99187.59;1798905;79;21136;-69
2021/06/09 11:41:40;;;;;;;6.47;3.58;;;;;;;28.22;45.27;99181.14;1773721;79;21096;-69
2021/06/09 11:44:09;;;;;;;3.72;3.42;;;;;;;28.30;45.00;99181.02;1786330;79;21048;-69
2021/06/09 11:46:37;;;;;;;4.17;3.80;;;;;;;28.39;44.89;99177.86;1768362;79;21032;-69
2021/06/09 11:49:07;;;;;;;3.95;3.65;;;;;;;28.47;44.56;99171.70;1769383;79;21056;-68
2021/06/09 11:51:49;;;;;;;3.85;3.40;;;;;;;28.55;44.48;99172.42;1770558;78;21109;-67
2021/06/09 11:54:35;;;;;;;3.90;3.20;;;;;;;28.62;44.30;99172.02;1790546;79;21036;-68